Time;durP1;ratioP1;P1;durP2;ratioP2;P2;SDS_P1;SDS_P2;PMS_P1;PMS_P2;Temp;Humidity;BMP_temperature;BMP_pressure;BME280_temperature;BME280_humidity;BME280_pressure;Samples;Min_cycle;Max_cycle;Signal;HPM_P1;HPM_P2
2022/03/19 00:00:36;;;;;;;56.90;34.33;;;;;;;;;;4969144;28;20034;-45
2022/03/19 00:03:03;;;;;;;44.45;28.10;;;;;;;;;;4985015;28;20050;-45
2022/03/19 00:05:29;;;;;;;50.13;30.98;;;;;;;;;;4988296;28;20030;-45
2022/03/19 00:07:55;;;;;;;43.35;27.40;;;;;;;;;;4985433;28;20573;-45
2022/03/19 00:10:22;;;;;;;38.83;25.23;;;;;;;;;;4983574;28;20031;-45
2022/03/19 00:12:49;;;;;;;36.80;25.05;;;;;;;;;;4983225;28;20038;-45
2022/03/19 00:15:19;;;;;;;37.55;25.17;;;;;;;;;;4981435;28;20078;-45
2022/03/19 00:17:45;;;;;;;36.92;24.92;;;;;;;;;;4981324;28;20049;-46
2022/03/19 00:20:12;;;;;;;30.85;21.80;;;;;;;;;;4985326;28;20033;-47
2022/03/19 00:22:38;;;;;;;31.80;19.90;;;;;;;;;;4986987;28;20027;-45
2022/03/19 00:25:05;;;;;;;29.52;20.52;;;;;;;;;;4989660;28;20034;-45
2022/03/19 00:27:31;;;;;;;25.50;19.02;;;;;;;;;;4989249;28;20030;-46
2022/03/19 00:29:57;;;;;;;29.10;18.67;;;;;;;;;;4980834;28;20363;-45
2022/03/19 00:32:23;;;;;;;25.30;17.20;;;;;;;;;;4978289;28;20114;-47
2022/03/19 00:34:49;;;;;;;27.38;17.08;;;;;;;;;;4987813;28;20035;-45
2022/03/19 00:37:15;;;;;;;27.17;17.90;;;;;;;;;;4980943;28;20046;-47
2022/03/19 00:39:41;;;;;;;27.48;18.98;;;;;;;;;;4976409;28;20109;-46
2022/03/19 00:42:07;;;;;;;30.85;19.58;;;;;;;;;;4960916;28;20117;-47
2022/03/19 00:44:33;;;;;;;32.90;22.23;;;;;;;;;;4989388;28;20045;-45
2022/03/19 00:46:59;;;;;;;33.63;21.92;;;;;;;;;;4986875;28;20031;-46
2022/03/19 00:49:26;;;;;;;39.28;25.83;;;;;;;;;;4966761;28;20483;-46
2022/03/19 00:51:52;;;;;;;40.45;26.85;;;;;;;;;;4985884;28;20038;-44
2022/03/19 00:54:18;;;;;;;42.15;28.00;;;;;;;;;;4978300;28;20546;-46
2022/03/19 00:56:46;;;;;;;42.47;28.23;;;;;;;;;;4979778;28;20444;-45
2022/03/19 00:59:12;;;;;;;41.95;27.67;;;;;;;;;;4984006;28;20038;-45
2022/03/19 01:01:38;;;;;;;44.40;27.95;;;;;;;;;;4986082;28;20066;-47
2022/03/19 01:04:05;;;;;;;41.78;28.30;;;4.10;92.80;;;;;;4983338;28;20368;-47
2022/03/19 01:06:31;;;;;;;44.22;28.85;;;;;;;;;;4986112;28;20549;-45
2022/03/19 01:08:57;;;;;;;55.35;37.05;;;3.70;99.90;;;;;;4983330;28;20033;-47
2022/03/19 01:11:23;;;;;;;48.28;30.55;;;;;;;;;;4966739;28;20042;-46
2022/03/19 01:13:50;;;;;;;51.67;31.83;;;2.80;95.00;;;;;;4986878;28;20034;-47
2022/03/19 01:16:18;;;;;;;53.88;32.88;;;3.00;95.30;;;;;;4982372;28;20057;-47
2022/03/19 01:18:47;;;;;;;47.60;33.22;;;3.10;95.10;;;;;;4965009;28;20061;-47
2022/03/19 01:21:13;;;;;;;47.47;32.00;;;3.20;95.20;;;;;;4987586;28;20393;-47
2022/03/19 01:23:38;;;;;;;45.55;29.77;;;3.20;95.00;;;;;;4983664;28;20536;-47
2022/03/19 01:26:04;;;;;;;46.08;30.23;;;3.20;94.90;;;;;;4982185;28;20030;-47
2022/03/19 01:28:30;;;;;;;46.88;31.13;;;3.20;95.00;;;;;;4982265;28;20045;-45
2022/03/19 01:30:56;;;;;;;52.03;33.70;;;3.00;95.20;;;;;;4986656;28;20039;-45
2022/03/19 01:33:21;;;;;;;50.83;34.17;;;2.80;95.70;;;;;;4932352;28;20042;-45
2022/03/19 01:35:47;;;;;;;55.42;33.15;;;3.20;95.50;;;;;;4966526;28;20049;-46
2022/03/19 01:38:13;;;;;;;50.40;33.40;;;3.40;97.80;;;;;;4938483;28;20116;-44
2022/03/19 01:40:39;;;;;;;52.08;33.25;;;3.40;99.90;;;;;;4988603;28;20112;-47
2022/03/19 01:43:05;;;;;;;49.35;32.78;;;3.60;99.90;;;;;;4988930;28;20489;-47
2022/03/19 01:45:31;;;;;;;51.30;33.85;;;3.60;94.80;;;;;;4987466;28;20057;-47
2022/03/19 01:47:56;;;;;;;54.10;35.05;;;3.70;94.60;;;;;;4975020;28;20505;-45
2022/03/19 01:50:27;;;;;;;52.75;35.00;;;3.80;94.50;;;;;;4987054;28;20052;-47
2022/03/19 01:52:54;;;;;;;58.08;37.70;;;3.80;94.50;;;;;;4990397;28;20089;-45
2022/03/19 01:55:22;;;;;;;61.03;38.28;;;3.80;94.50;;;;;;4985026;28;20031;-46
2022/03/19 01:57:49;;;;;;;60.90;38.05;;;3.90;94.50;;;;;;4990224;28;20036;-46
2022/03/19 02:00:22;;;;;;;53.40;34.53;;;3.90;94.50;;;;;;4986706;28;20061;-46
2022/03/19 02:02:49;;;;;;;53.08;33.35;;;3.80;94.60;;;;;;4989868;28;20553;-47
2022/03/19 02:05:20;;;;;;;52.50;33.70;;;3.70;94.70;;;;;;4984368;28;20085;-45
2022/03/19 02:07:47;;;;;;;60.67;35.75;;;3.80;94.80;;;;;;4982813;28;20031;-47
2022/03/19 02:10:16;;;;;;;55.05;36.20;;;3.70;94.70;;;;;;4985919;28;20080;-45
2022/03/19 02:12:44;;;;;;;56.88;35.38;;;3.80;94.70;;;;;;4987848;28;20076;-47
2022/03/19 02:15:11;;;;;;;54.33;36.28;;;3.80;94.70;;;;;;4983940;28;20494;-46
2022/03/19 02:17:37;;;;;;;58.25;35.60;;;3.80;95.00;;;;;;4990960;28;20033;-47
2022/03/19 02:20:05;;;;;;;57.38;35.78;;;3.70;95.00;;;;;;4987553;28;20479;-46
2022/03/19 02:22:31;;;;;;;51.08;34.22;;;3.60;95.20;;;;;;4990616;28;20390;-47
2022/03/19 02:27:43;;;;;;;55.20;34.20;;;3.70;94.90;;;;;;4985974;28;20037;-47
2022/03/19 02:30:11;;;;;;;47.15;31.98;;;3.70;94.90;;;;;;4983610;28;20034;-47
2022/03/19 02:32:42;;;;;;;47.80;31.27;;;3.60;94.90;;;;;;4993085;28;20113;-47
2022/03/19 02:35:10;;;;;;;47.00;28.90;;;3.60;95.20;;;;;;4985480;28;20113;-45
2022/03/19 02:37:43;;;;;;;40.05;26.33;;;3.50;95.20;;;;;;4985184;28;20042;-45
2022/03/19 02:40:11;;;;;;;35.35;23.05;;;3.50;95.30;;;;;;4983333;28;20043;-46
2022/03/19 02:42:38;;;;;;;32.78;21.50;;;3.40;95.20;;;;;;4985959;28;20027;-46
2022/03/19 02:45:05;;;;;;;29.27;20.23;;;3.50;94.90;;;;;;4934817;28;20043;-45
2022/03/19 02:47:32;;;;;;;31.67;20.48;;;3.40;94.70;;;;;;4959559;28;20045;-45
2022/03/19 02:49:58;;;;;;;29.77;18.88;;;3.50;94.70;;;;;;4986380;28;20030;-45
2022/03/19 02:52:24;;;;;;;31.90;20.08;;;3.50;94.60;;;;;;4984407;28;20050;-46
2022/03/19 02:54:50;;;;;;;26.92;17.77;;;3.50;94.50;;;;;;4967191;28;20042;-47
2022/03/19 02:57:16;;;;;;;29.15;18.10;;;3.50;94.50;;;;;;4984027;28;20026;-46
2022/03/19 02:59:41;;;;;;;29.60;19.05;;;3.50;94.50;;;;;;4934765;28;20035;-46
2022/03/19 03:02:08;;;;;;;30.70;20.05;;;3.50;94.60;;;;;;4984547;28;20031;-47
2022/03/19 03:04:33;;;;;;;28.83;19.92;;;3.60;94.50;;;;;;4987021;28;20042;-47
2022/03/19 03:07:04;;;;;;;25.70;18.48;;;3.60;94.40;;;;;;4949962;28;20042;-47
2022/03/19 03:09:31;;;;;;;30.52;18.98;;;3.60;94.40;;;;;;4980060;28;20034;-45
2022/03/19 03:11:59;;;;;;;29.38;19.45;;;3.60;94.40;;;;;;4989698;28;20097;-46
2022/03/19 03:14:25;;;;;;;28.77;19.52;;;3.60;94.40;;;;;;4986617;28;20030;-47
2022/03/19 03:16:53;;;;;;;26.25;19.20;;;3.60;94.40;;;;;;4936933;28;20092;-46
2022/03/19 03:19:19;;;;;;;29.02;18.95;;;3.60;94.40;;;;;;4948598;28;20035;-51
2022/03/19 03:21:46;;;;;;;28.35;19.15;;;3.60;94.40;;;;;;4991273;28;20027;-46
2022/03/19 03:24:13;;;;;;;27.08;18.80;;;3.60;94.40;;;;;;4984168;28;20046;-45
2022/03/19 03:26:40;;;;;;;35.85;20.05;;;3.60;94.30;;;;;;4947486;28;20096;-46
2022/03/19 03:29:06;;;;;;;29.83;19.10;;;3.50;94.30;;;;;;4979630;28;20030;-47
2022/03/19 03:31:33;;;;;;;30.75;19.48;;;3.50;94.40;;;;;;4991337;28;20181;-47
2022/03/19 03:34:00;;;;;;;33.70;21.15;;;3.50;94.30;;;;;;4982551;28;20034;-47
2022/03/19 03:36:26;;;;;;;30.70;20.17;;;3.50;94.60;;;;;;4977441;28;20042;-47
2022/03/19 03:38:52;;;;;;;28.80;17.98;;;3.40;94.70;;;;;;4989919;28;20807;-45
2022/03/19 03:41:18;;;;;;;28.30;17.80;;;3.50;94.70;;;;;;4984371;28;20050;-47
2022/03/19 03:43:45;;;;;;;26.65;17.83;;;3.50;94.70;;;;;;4945939;28;20078;-45
2022/03/19 03:46:10;;;;;;;25.75;17.70;;;3.50;94.60;;;;;;4986956;28;20030;-45
2022/03/19 03:48:36;;;;;;;23.38;16.08;;;3.50;94.40;;;;;;4916958;28;20034;-46
2022/03/19 03:51:03;;;;;;;29.00;17.88;;;3.50;94.50;;;;;;4953779;28;20030;-46
2022/03/19 03:53:30;;;;;;;28.35;18.60;;;3.40;94.50;;;;;;4981360;28;20111;-47
2022/03/19 03:55:57;;;;;;;31.75;19.48;;;3.40;94.50;;;;;;4983198;28;20034;-46
2022/03/19 03:58:24;;;;;;;31.67;20.20;;;3.40;94.50;;;;;;4986838;28;20097;-46
2022/03/19 04:00:52;;;;;;;34.80;22.25;;;3.40;94.60;;;;;;4980759;28;20122;-47
2022/03/19 04:03:18;;;;;;;29.25;19.55;;;3.40;94.80;;;;;;4982787;28;20038;-47
2022/03/19 04:05:44;;;;;;;31.90;20.83;;;3.40;94.80;;;;;;4987725;28;20030;-47
2022/03/19 04:08:09;;;;;;;37.70;24.10;;;3.40;94.80;;;;;;4897574;28;20402;-45
2022/03/19 04:10:35;;;;;;;31.70;21.02;;;3.40;94.90;;;;;;4983671;28;20034;-45
2022/03/19 04:13:01;;;;;;;32.38;21.48;;;3.40;94.90;;;;;;4990991;28;20035;-47
2022/03/19 04:15:27;;;;;;;36.42;22.33;;;3.50;94.90;;;;;;4986288;28;20052;-44
2022/03/19 04:17:53;;;;;;;34.13;21.30;;;3.50;94.80;;;;;;4972634;28;20042;-46
2022/03/19 04:20:21;;;;;;;36.38;23.20;;;3.40;94.80;;;;;;4976023;28;20042;-46
2022/03/19 04:22:47;;;;;;;38.85;24.02;;;3.50;94.80;;;;;;4990330;28;20049;-47
2022/03/19 04:25:18;;;;;;;37.10;23.35;;;3.50;94.80;;;;;;4983452;28;20561;-47
2022/03/19 04:27:47;;;;;;;34.38;22.50;;;3.50;94.90;;;;;;4981037;28;20072;-47
2022/03/19 04:30:15;;;;;;;30.48;21.63;;;3.50;94.90;;;;;;4952111;28;20042;-46
2022/03/19 04:32:46;;;;;;;34.05;19.67;;;3.50;94.90;;;;;;4983084;28;20034;-48
2022/03/19 04:38:05;;;;;;;31.95;18.63;;;3.50;94.70;;;;;;4980705;28;20065;-48
2022/03/19 04:40:32;;;;;;;25.58;17.52;;;3.40;94.80;;;;;;4984456;28;20402;-47
2022/03/19 04:42:58;;;;;;;28.85;17.27;;;3.40;94.80;;;;;;4984870;28;20077;-47
2022/03/19 04:45:24;;;;;;;20.95;13.48;;;3.40;94.80;;;;;;4968971;28;20039;-47
2022/03/19 04:47:51;;;;;;;21.38;14.00;;;3.30;94.60;;;;;;4981480;28;20387;-47
2022/03/19 04:50:17;;;;;;;16.90;12.32;;;3.40;94.70;;;;;;4984094;28;20037;-48
2022/03/19 04:52:44;;;;;;;21.92;14.80;;;3.40;94.70;;;;;;4984902;28;20036;-48
2022/03/19 04:55:10;;;;;;;28.42;20.23;;;3.30;94.70;;;;;;4967116;28;20042;-47
2022/03/19 04:57:37;;;;;;;22.77;15.57;;;3.40;94.80;;;;;;4983369;28;20038;-46
2022/03/19 05:00:05;;;;;;;25.98;17.05;;;3.40;94.90;;;;;;4987683;28;20089;-47
2022/03/19 05:02:32;;;;;;;30.75;17.73;;;3.50;94.80;;;;;;4936682;28;20455;-47
2022/03/19 05:04:58;;;;;;;22.42;15.68;;;3.50;94.80;;;;;;4986899;28;20049;-47
2022/03/19 05:07:27;;;;;;;27.25;18.52;;;3.40;94.90;;;;;;4963338;28;20399;-45
2022/03/19 05:12:40;;;;;;;23.65;15.55;;;3.40;94.80;;;;;;4983005;28;20453;-45
2022/03/19 05:15:08;;;;;;;32.60;21.55;;;;;;;;;;4988666;28;20129;-46
2022/03/19 05:17:34;;;;;;;47.78;30.90;;;;;;;;;;4990102;28;20138;-46
2022/03/19 05:20:00;;;;;;;44.22;30.17;;;;;;;;;;4987275;28;20053;-48
2022/03/19 05:22:29;;;;;;;45.78;30.60;;;;;;;;;;4988743;28;20027;-46
2022/03/19 05:24:56;;;;;;;37.17;25.13;;;2.10;98.10;;;;;;4990425;28;20035;-46
2022/03/19 05:27:22;;;;;;;37.78;25.90;;;2.00;99.90;;;;;;4989895;28;20030;-45
2022/03/19 05:29:48;;;;;;;33.53;23.60;;;2.20;99.70;;;;;;4991081;28;20035;-47
2022/03/19 05:32:15;;;;;;;36.95;23.67;;;2.10;99.90;;;;;;4990813;28;20107;-48
2022/03/19 05:34:41;;;;;;;31.88;22.10;;;1.60;99.90;;;;;;4988743;28;20065;-48
2022/03/19 05:37:09;;;;;;;37.80;23.35;;;1.70;99.90;;;;;;4981846;28;20034;-46
2022/03/19 05:39:34;;;;;;;42.42;26.30;;;1.40;99.90;;;;;;4985564;28;20038;-45
2022/03/19 05:42:00;;;;;;;39.15;24.55;;;1.80;99.90;;;;;;4989447;28;20037;-48
2022/03/19 05:44:26;;;;;;;39.38;24.75;;;1.90;99.90;;;;;;4984006;28;20092;-46
2022/03/19 05:46:52;;;;;;;43.15;26.45;;;2.30;99.90;;;;;;4975934;28;20088;-45
2022/03/19 05:49:17;;;;;;;40.20;26.00;;;2.30;99.90;;;;;;4986106;28;20027;-48
2022/03/19 05:51:43;;;;;;;37.45;24.60;;;2.30;99.90;;;;;;4969653;28;20046;-48
2022/03/19 05:54:10;;;;;;;35.25;23.55;;;2.40;99.90;;;;;;4985421;28;20049;-47
2022/03/19 05:56:37;;;;;;;34.13;22.83;;;2.30;99.90;;;;;;4960229;28;20042;-48
2022/03/19 05:59:03;;;;;;;33.08;23.17;;;2.30;99.90;;;;;;4984692;28;20027;-45
2022/03/19 06:01:29;;;;;;;40.88;24.08;;;2.50;99.90;;;;;;4983712;28;20038;-47
2022/03/19 06:03:59;;;;;;;38.00;26.23;;;2.50;99.90;;;;;;4984365;28;20042;-46
2022/03/19 06:06:25;;;;;;;43.75;27.70;;;2.80;99.90;;;;;;4992866;28;20034;-46
2022/03/19 06:08:52;;;;;;;44.38;28.63;;;3.00;99.90;;;;;;4938126;28;20053;-47
2022/03/19 06:11:18;;;;;;;39.40;26.50;;;3.40;99.90;;;;;;4982277;28;20466;-45
2022/03/19 06:13:43;;;;;;;46.35;28.77;;;3.70;99.90;;;;;;4996002;28;20030;-47
2022/03/19 06:16:09;;;;;;;47.42;28.70;;;3.90;99.90;;;;;;4984499;28;20104;-47
2022/03/19 06:18:35;;;;;;;53.65;35.65;;;4.20;99.90;;;;;;4992406;28;20471;-45
2022/03/19 06:21:02;;;;;;;53.67;35.13;;;4.50;99.70;;;;;;4988516;28;20069;-47
2022/03/19 06:23:28;;;;;;;48.40;30.70;;;;;;;;;;4992043;28;20066;-48
2022/03/19 06:25:54;;;;;;;50.33;31.55;;;;;;;;;;4991586;28;20141;-46
2022/03/19 06:28:20;;;;;;;45.38;30.90;;;;;;;;;;4988625;28;20402;-47
2022/03/19 06:30:46;;;;;;;47.65;31.08;;;5.40;99.90;;;;;;4988237;28;20414;-45
2022/03/19 06:33:12;;;;;;;49.72;30.20;;;5.60;99.90;;;;;;4989310;28;20093;-48
2022/03/19 06:38:26;;;;;;;43.55;26.52;;;5.80;99.90;;;;;;4985432;28;20049;-47
2022/03/19 06:40:52;;;;;;;41.83;26.05;;;5.90;99.90;;;;;;4984688;28;20038;-48
2022/03/19 06:43:18;;;;;;;46.35;28.80;;;6.00;99.90;;;;;;4944738;28;20050;-46
2022/03/19 06:45:43;;;;;;;47.63;27.90;;;6.20;99.90;;;;;;4930964;28;20057;-46
2022/03/19 06:48:09;;;;;;;47.13;27.83;;;6.20;99.90;;;;;;4960132;28;20475;-45
2022/03/19 06:50:35;;;;;;;42.08;25.10;;;6.30;99.90;;;;;;4958477;28;20076;-47
2022/03/19 06:53:05;;;;;;;34.50;21.30;;;6.30;99.90;;;;;;4952687;28;20038;-47
2022/03/19 06:55:32;;;;;;;36.08;20.60;;;6.50;99.90;;;;;;4950056;28;20045;-45
2022/03/19 06:57:58;;;;;;;34.58;21.25;;;6.70;99.90;;;;;;4987094;28;20490;-47
2022/03/19 07:00:24;;;;;;;31.60;22.58;;;6.80;99.90;;;;;;4984581;28;20026;-46
2022/03/19 07:02:52;;;;;;;32.05;21.67;;;6.90;99.30;;;;;;4984045;28;20026;-46
2022/03/19 07:05:21;;;;;;;35.30;23.02;;;6.70;99.90;;;;;;4980107;28;20046;-46
2022/03/19 07:07:48;;;;;;;30.00;20.77;;;7.00;99.90;;;;;;4988195;28;20366;-48
2022/03/19 07:10:15;;;;;;;35.67;21.65;;;7.00;99.90;;;;;;4983490;28;20033;-49
2022/03/19 07:12:44;;;;;;;31.52;21.35;;;7.20;99.90;;;;;;4980677;28;20374;-47
2022/03/19 07:15:14;;;;;;;28.45;20.27;;;7.70;95.60;;;;;;4930518;28;20255;-48
2022/03/19 07:17:40;;;;;;;30.85;20.17;;;8.10;95.60;;;;;;4985908;28;20493;-48
2022/03/19 07:20:07;;;;;;;28.65;18.40;;;8.50;95.20;;;;;;4943802;28;20561;-46
2022/03/19 07:22:52;;;;;;;34.65;19.60;;;8.90;99.90;;;;;;4972917;28;20084;-47
2022/03/19 07:25:19;;;;;;;35.53;21.17;;;;;;;;;;4988097;28;20184;-47
2022/03/19 07:27:45;;;;;;;26.17;19.50;;;;;;;;;;4985174;28;20121;-44
2022/03/19 07:30:12;;;;;;;31.38;20.58;;;;;;;;;;4977816;28;20034;-50
2022/03/19 07:32:38;;;;;;;29.40;20.88;;;9.90;99.80;;;;;;4983454;28;20626;-48
2022/03/19 07:35:06;;;;;;;34.25;20.55;;;10.00;92.50;;;;;;4983612;28;20097;-47
2022/03/19 07:37:32;;;;;;;33.13;22.10;;;10.30;92.30;;;;;;4965429;28;20053;-48
2022/03/19 07:39:59;;;;;;;41.75;20.80;;;10.70;92.20;;;;;;4982345;28;20090;-47
2022/03/19 07:42:25;;;;;;;30.00;20.95;;;11.00;92.00;;;;;;4985915;28;20124;-46
2022/03/19 07:44:51;;;;;;;30.25;20.17;;;11.20;91.60;;;;;;4982007;28;20663;-47
2022/03/19 07:47:17;;;;;;;30.23;22.83;;;11.10;91.00;;;;;;4958084;28;20035;-48
2022/03/19 07:49:43;;;;;;;27.67;20.60;;;;;;;;;;4986274;28;20359;-47
2022/03/19 07:52:10;;;;;;;29.58;20.50;;;;;;;;;;4993969;28;20031;-47
2022/03/19 07:54:36;;;;;;;30.90;22.77;;;;;;;;;;4924876;29;20047;-48
2022/03/19 07:57:07;;;;;;;36.47;23.25;;;;;;;;;;4922800;29;20039;-45
2022/03/19 07:59:34;;;;;;;49.35;28.30;;;;;;;;;;4916647;29;20040;-44
2022/03/19 08:02:00;;;;;;;39.88;25.13;;;;;;;;;;4928175;29;20131;-49
2022/03/19 08:04:26;;;;;;;83.80;38.30;;;;;;;;;;4907407;29;20411;-47
2022/03/19 08:06:54;;;;;;;37.13;25.58;;;;;;;;;;4902200;29;20040;-48
2022/03/19 08:09:21;;;;;;;34.42;23.58;;;;;;;;;;4902353;29;20083;-45
2022/03/19 08:11:47;;;;;;;31.17;23.15;;;;;;;;;;4906068;29;20599;-48
2022/03/19 08:14:14;;;;;;;402.80;162.05;;;;;;;;;;4907132;29;20036;-48
2022/03/19 08:16:41;;;;;;;105.05;48.92;;;;;;;;;;4906276;29;20086;-48
2022/03/19 08:19:08;;;;;;;33.65;23.45;;;;;;;;;;4892732;29;20131;-48
2022/03/19 08:21:34;;;;;;;31.52;23.08;;;;;;;;;;4904801;29;20032;-48
2022/03/19 08:24:00;;;;;;;30.83;22.92;;;;;;;;;;4893395;29;20068;-48
2022/03/19 08:26:26;;;;;;;34.00;22.90;;;;;;;;;;4922009;29;20044;-48
2022/03/19 08:28:53;;;;;;;39.65;27.27;;;;;;;;;;4922488;29;20043;-47
2022/03/19 08:31:19;;;;;;;35.15;24.13;;;;;;;;;;4903553;29;20130;-47
2022/03/19 08:33:45;;;;;;;31.38;22.83;;;;;;;;;;4925733;29;20076;-48
2022/03/19 08:36:12;;;;;;;33.00;23.85;;;;;;;;;;4921867;28;20509;-48
2022/03/19 08:41:23;;;;;;;30.25;22.75;;;;;;;;;;4984198;28;20073;-50
2022/03/19 08:43:49;;;;;;;31.55;22.25;;;;;;;;;;4948025;28;20062;-52
2022/03/19 08:46:15;;;;;;;29.05;22.67;;;;;;;;;;4985362;28;20022;-50
2022/03/19 08:48:41;;;;;;;32.47;22.95;;;;;;;;;;4986055;28;20042;-53
2022/03/19 08:53:52;;;;;;;33.83;23.38;;;17.40;82.00;;;;;;4955244;28;20104;-53
2022/03/19 08:56:18;;;;;;;30.83;22.92;;;;;;;;;;4953602;28;20035;-51
2022/03/19 08:58:44;;;;;;;32.03;24.65;;;;;;;;;;4979932;28;20030;-52
2022/03/19 09:01:11;;;;;;;31.40;24.27;;;;;;;;;;4963156;28;20454;-48
2022/03/19 09:03:37;;;;;;;38.05;27.27;;;;;;;;;;4981876;28;20491;-47
2022/03/19 09:06:03;;;;;;;32.08;23.80;;;18.60;77.50;;;;;;4983491;28;20027;-48
2022/03/19 09:08:28;;;;;;;32.35;24.50;;;18.50;78.60;;;;;;4953323;28;20050;-47
2022/03/19 09:10:57;;;;;;;34.15;24.85;;;18.70;76.70;;;;;;4986244;28;20026;-50
2022/03/19 09:13:23;;;;;;;34.20;23.63;;;;;;;;;;4989104;28;20030;-48
2022/03/19 09:15:49;;;;;;;29.92;22.15;;;18.20;83.80;;;;;;4986174;28;20054;-50
2022/03/19 09:18:16;;;;;;;33.50;21.80;;;19.30;76.60;;;;;;4985701;28;20685;-49
2022/03/19 09:20:43;;;;;;;38.53;30.58;;;19.60;75.40;;;;;;4923535;28;20050;-51
2022/03/19 09:23:09;;;;;;;28.33;22.67;;;20.00;76.50;;;;;;4982108;28;20051;-51
2022/03/19 09:25:36;;;;;;;28.05;21.02;;;20.40;89.30;;;;;;4984039;28;20022;-50
2022/03/19 09:28:02;;;;;;;31.63;22.02;;;19.40;75.80;;;;;;4982971;28;20034;-48
2022/03/19 09:30:27;;;;;;;26.60;21.17;;;19.80;74.30;;;;;;4963783;28;20041;-52
2022/03/19 09:32:57;;;;;;;26.02;20.67;;;18.80;75.00;;;;;;4964991;28;20410;-49
2022/03/19 09:35:23;;;;;;;27.10;21.30;;;19.60;73.40;;;;;;4961087;28;20082;-46
2022/03/19 09:37:51;;;;;;;26.55;21.65;;;;;;;;;;4978786;28;20394;-49
2022/03/19 09:40:18;;;;;;;27.75;20.80;;;20.50;73.90;;;;;;4982990;28;20102;-45
2022/03/19 09:42:48;;;;;;;24.90;21.27;;;19.30;74.00;;;;;;4984132;28;20062;-47
2022/03/19 09:45:16;;;;;;;29.17;22.20;;;20.40;73.70;;;;;;4981305;28;20064;-47
2022/03/19 09:47:42;;;;;;;27.73;20.58;;;20.50;78.60;;;;;;4975781;28;20499;-44
2022/03/19 09:50:08;;;;;;;26.35;19.13;;;19.70;72.30;;;;;;4981044;28;20078;-50
2022/03/19 09:52:39;;;;;;;24.45;20.73;;;19.40;72.30;;;;;;4982705;28;20053;-49
2022/03/19 09:55:05;;;;;;;24.23;19.60;;;20.50;78.40;;;;;;4979405;28;20419;-47
2022/03/19 09:57:31;;;;;;;24.60;19.40;;;20.70;73.10;;;;;;4971818;28;20050;-48
2022/03/19 09:59:57;;;;;;;25.10;20.95;;;20.10;86.50;;;;;;4985758;28;20494;-48
2022/03/19 10:02:23;;;;;;;31.58;25.70;;;19.70;72.70;;;;;;4980093;28;20050;-49
2022/03/19 10:04:57;;;;;;;25.40;19.92;;;20.30;71.60;;;;;;4989126;28;20039;-49
2022/03/19 10:10:09;;;;;;;21.67;18.17;;;20.90;71.80;;;;;;4984160;28;20541;-47
2022/03/19 10:12:37;;;;;;;24.63;17.80;;;;;;;;;;4987756;28;20038;-45
2022/03/19 10:15:09;;;;;;;23.10;16.70;;;;;;;;;;4986810;28;20144;-51
2022/03/19 10:17:40;;;;;;;25.48;17.20;;;21.60;92.20;;;;;;4992405;28;20551;-51
2022/03/19 10:20:11;;;;;;;17.85;14.55;;;21.50;69.90;;;;;;4985100;28;20035;-46
2022/03/19 10:22:42;;;;;;;22.13;16.63;;;19.60;69.30;;;;;;4979193;28;20485;-50
2022/03/19 10:25:11;;;;;;;21.02;16.90;;;19.60;70.30;;;;;;4955778;28;20038;-45
2022/03/19 10:27:42;;;;;;;17.95;14.35;;;20.10;71.10;;;;;;4987616;28;20573;-45
2022/03/19 10:30:16;;;;;;;20.10;15.10;;;20.40;69.40;;;;;;4985674;28;20482;-51
2022/03/19 10:32:46;;;;;;;17.85;14.85;;;20.90;69.80;;;;;;4984923;28;20085;-46
2022/03/19 10:35:31;;;;;;;18.05;14.57;;;20.40;68.80;;;;;;4977165;28;20045;-47
2022/03/19 10:37:59;;;;;;;20.48;17.00;;;19.70;69.10;;;;;;4969142;28;20541;-50
2022/03/19 10:40:39;;;;;;;21.60;13.50;;;19.80;69.70;;;;;;4985899;28;20062;-48
2022/03/19 10:43:07;;;;;;;31.00;25.30;;;18.00;69.60;;;;;;4938440;28;20153;-45
2022/03/19 10:45:33;;;;;;;18.13;12.38;;;17.40;70.30;;;;;;4985921;28;20038;-46
2022/03/19 10:48:03;;;;;;;14.20;12.18;;;18.60;71.50;;;;;;4983788;28;20094;-50
2022/03/19 10:50:29;;;;;;;16.08;13.05;;;19.30;70.70;;;;;;4967641;28;20050;-48
2022/03/19 10:52:56;;;;;;;20.15;14.25;;;19.30;87.90;;;;;;4963036;28;20042;-49
2022/03/19 10:55:22;;;;;;;17.60;11.80;;;19.30;87.10;;;;;;4980119;28;20043;-49
2022/03/19 10:57:48;;;;;;;14.60;12.23;;;18.10;68.20;;;;;;4941855;28;20045;-48
2022/03/19 11:00:16;;;;;;;15.82;13.43;;;17.80;69.40;;;;;;4983580;28;20386;-47
2022/03/19 11:02:46;;;;;;;14.30;12.20;;;18.60;70.90;;;;;;4937262;28;20088;-44
2022/03/19 11:05:12;;;;;;;16.58;12.95;;;17.70;68.60;;;;;;4985672;28;20549;-48
2022/03/19 11:07:43;;;;;;;14.95;11.93;;;17.00;68.60;;;;;;4985731;28;20104;-52
2022/03/19 11:10:10;;;;;;;15.18;10.75;;;16.30;69.50;;;;;;4981455;28;20113;-47
2022/03/19 11:12:42;;;;;;;14.43;11.73;;;15.80;71.30;;;;;;4922021;28;20042;-46
2022/03/19 11:15:10;;;;;;;13.02;11.13;;;16.30;70.80;;;;;;4925484;29;20052;-47
2022/03/19 11:17:41;;;;;;;15.05;11.65;;;17.60;70.30;;;;;;4912802;29;20039;-46
2022/03/19 11:20:11;;;;;;;11.88;10.48;;;17.30;69.00;;;;;;4925924;29;20056;-50
2022/03/19 11:22:52;;;;;;;15.27;11.13;;;17.10;68.50;;;;;;4890265;29;20042;-50
2022/03/19 11:25:28;;;;;;;13.02;10.27;;;18.20;70.30;;;;;;4920993;29;20060;-50
2022/03/19 11:28:05;;;;;;;12.98;9.10;;;17.60;68.20;;;;;;4922829;29;20567;-49
2022/03/19 11:30:37;;;;;;;12.65;8.98;;;17.10;67.40;;;;;;4925268;29;20122;-46
2022/03/19 11:33:22;;;;;;;10.23;8.43;;;17.60;67.70;;;;;;4923834;29;20144;-48
2022/03/19 11:35:59;;;;;;;10.32;8.45;;;18.00;67.40;;;;;;4923472;29;20099;-49
2022/03/19 11:38:25;;;;;;;11.18;9.57;;;18.30;67.20;;;;;;4919964;29;20036;-51
2022/03/19 11:40:56;;;;;;;10.90;9.20;;;17.90;67.30;;;;;;4925290;29;20643;-47
2022/03/19 11:43:24;;;;;;;14.30;10.52;;;17.50;67.80;;;;;;4931273;29;20044;-47
2022/03/19 11:46:05;;;;;;;14.07;10.63;;;17.00;95.70;;;;;;4950084;28;20074;-48
2022/03/19 11:48:50;;;;;;;15.45;11.02;;;16.50;94.60;;;;;;4983850;28;20113;-48
2022/03/19 11:51:18;;;;;;;13.50;10.93;;;17.40;94.40;;;;;;4987715;28;20052;-51
2022/03/19 11:54:02;;;;;;;13.98;9.55;;;18.20;67.50;;;;;;4983858;28;20034;-49
2022/03/19 11:56:44;;;;;;;14.57;9.10;;;17.20;66.20;;;;;;4977126;28;20089;-46
2022/03/19 11:59:31;;;;;;;12.25;6.22;;;16.60;68.00;;;;;;4981006;28;20043;-46
2022/03/19 12:02:01;;;;;;;12.50;9.40;;;;;;;;;;4940400;28;20124;-52
2022/03/19 12:04:55;;;;;;;13.80;10.27;;;16.80;96.30;;;;;;4985795;28;20177;-49
2022/03/19 12:07:47;;;;;;;16.63;12.85;;;;;;;;;;4982625;28;20181;-47
2022/03/19 12:10:20;;;;;;;13.60;10.70;;;17.40;94.30;;;;;;4980511;28;20078;-48
2022/03/19 12:12:47;;;;;;;14.32;11.57;;;17.30;93.90;;;;;;4979114;28;20083;-45
2022/03/19 12:15:32;;;;;;;14.52;11.07;;;;;;;;;;4949385;28;20050;-50
2022/03/19 12:18:43;;;;;;;17.20;11.73;;;17.70;99.70;;;;;;4984566;28;20030;-48
2022/03/19 12:21:08;;;;;;;16.35;12.00;;;18.30;78.00;;;;;;4985454;28;20077;-50
2022/03/19 12:23:40;;;;;;;14.80;11.85;;;18.60;80.60;;;;;;4979942;28;20038;-50
2022/03/19 12:26:08;;;;;;;13.35;10.43;;;18.40;79.10;;;;;;4975089;28;20027;-47
2022/03/19 12:28:35;;;;;;;12.93;10.50;;;18.10;67.70;;;;;;4932621;28;20490;-48
2022/03/19 12:31:04;;;;;;;13.65;10.50;;;17.70;67.30;;;;;;4947369;28;20122;-52
2022/03/19 12:33:31;;;;;;;16.50;11.73;;;18.20;67.90;;;;;;4986181;28;20034;-48
2022/03/19 12:35:58;;;;;;;14.23;10.80;;;18.00;68.00;;;;;;4977937;28;20058;-48
2022/03/19 12:38:32;;;;;;;13.32;10.38;;;18.30;67.60;;;;;;4980322;28;20035;-50
2022/03/19 12:43:43;;;;;;;12.45;10.50;;;17.30;66.20;;;;;;4976364;28;20082;-48
2022/03/19 12:46:09;;;;;;;11.35;9.30;;;17.20;66.60;;;;;;4981482;28;20467;-52
2022/03/19 12:48:39;;;;;;;13.45;10.15;;;17.50;65.20;;;;;;4987640;28;20471;-50
2022/03/19 12:51:06;;;;;;;12.50;9.55;;;16.70;66.80;;;;;;4974958;28;21839;-53
2022/03/19 12:53:40;;;;;;;15.75;10.55;;;16.60;65.80;;;;;;4950331;28;20042;-47
2022/03/19 12:56:20;;;;;;;14.82;10.38;;;16.00;68.30;;;;;;4981407;28;20034;-49
2022/03/19 12:58:51;;;;;;;16.45;9.98;;;15.30;69.00;;;;;;4980425;28;20026;-50
2022/03/19 13:01:22;;;;;;;14.52;11.00;;;14.70;69.30;;;;;;4938627;28;20482;-51
2022/03/19 13:03:53;;;;;;;13.65;10.20;;;14.80;70.70;;;;;;4984913;28;20074;-48
2022/03/19 13:06:29;;;;;;;14.13;11.07;;;15.30;70.10;;;;;;4981232;28;20490;-48
2022/03/19 13:08:55;;;;;;;12.05;9.63;;;15.90;69.00;;;;;;4959495;28;20046;-50
2022/03/19 13:11:21;;;;;;;12.63;9.90;;;15.60;67.00;;;;;;4982302;28;20043;-50
2022/03/19 13:13:48;;;;;;;13.23;9.55;;;16.10;67.70;;;;;;4982614;28;20577;-52
2022/03/19 13:16:34;;;;;;;17.02;10.55;;;16.40;67.60;;;;;;4960010;28;20073;-51
2022/03/19 13:19:04;;;;;;;13.13;9.68;;;16.60;65.90;;;;;;4985381;28;20057;-47
2022/03/19 13:21:32;;;;;;;12.77;9.35;;;17.00;67.50;;;;;;4979185;28;20076;-50